createdAt,value
2019-03-26T00:01:19.135Z,99.80
2019-03-26T00:04:06.070Z,99.60
2019-03-26T00:06:39.075Z,99.60
2019-03-26T00:09:21.040Z,99.40
2019-03-26T00:11:57.500Z,99.30
2019-03-26T00:14:39.568Z,99.10
2019-03-26T00:17:22.658Z,99.00
2019-03-26T00:20:05.477Z,98.80
2019-03-26T00:22:41.887Z,98.50
2019-03-26T00:25:24.603Z,98.60
2019-03-26T00:28:07.589Z,98.40
2019-03-26T00:30:50.261Z,98.20
2019-03-26T00:33:35.661Z,98.20
2019-03-26T00:36:10.199Z,98.00
2019-03-26T00:38:46.671Z,98.00
2019-03-26T00:41:29.903Z,98.00
2019-03-26T00:44:06.297Z,98.20
2019-03-26T00:46:48.367Z,98.30
2019-03-26T00:49:31.192Z,98.40
2019-03-26T00:52:14.278Z,98.40
2019-03-26T00:54:50.202Z,98.60
2019-03-26T00:57:26.439Z,98.60
2019-03-26T01:00:09.723Z,98.50
2019-03-26T01:02:58.412Z,98.70
2019-03-26T01:05:40.492Z,98.20
2019-03-26T01:08:16.774Z,98.00
2019-03-26T01:10:58.428Z,98.10
2019-03-26T01:13:34.393Z,97.90
2019-03-26T01:16:16.929Z,97.90
2019-03-26T01:18:53.305Z,97.70
2019-03-26T01:21:36.154Z,97.70
2019-03-26T01:24:12.350Z,97.70
2019-03-26T01:26:55.299Z,97.70
2019-03-26T01:29:31.768Z,97.80
2019-03-26T01:32:14.705Z,97.90
2019-03-26T01:37:45.804Z,97.80
2019-03-26T01:40:29.614Z,98.00
2019-03-26T01:43:11.830Z,98.00
2019-03-26T01:45:54.603Z,98.20
2019-03-26T01:48:31.073Z,98.30
2019-03-26T01:51:14.613Z,98.50
2019-03-26T01:53:50.289Z,98.80
2019-03-26T01:56:32.063Z,98.90
2019-03-26T01:59:07.885Z,99.00
2019-03-26T02:01:50.453Z,99.00
2019-03-26T02:04:33.039Z,99.10
2019-03-26T02:07:15.247Z,99.20
2019-03-26T02:09:51.284Z,99.30
2019-03-26T02:12:33.913Z,99.50
2019-03-26T02:15:10.228Z,99.50
2019-03-26T02:17:53.311Z,99.40
2019-03-26T02:20:29.722Z,99.30
2019-03-26T02:23:12.136Z,99.30
2019-03-26T02:25:48.157Z,99.40
2019-03-26T02:28:30.148Z,99.60
2019-03-26T02:31:13.161Z,99.80
2019-03-26T02:33:55.829Z,99.80
2019-03-26T02:36:31.644Z,99.70
2019-03-26T02:39:15.115Z,99.80
2019-03-26T02:41:51.475Z,99.90
2019-03-26T02:44:33.630Z,99.90
2019-03-26T02:47:16.611Z,99.90
2019-03-26T02:49:59.355Z,99.90
2019-03-26T02:52:42.014Z,99.90
2019-03-26T02:55:24.491Z,99.90
2019-03-26T02:58:00.948Z,99.90
2019-03-26T03:00:43.541Z,99.90
2019-03-26T03:03:19.915Z,99.90
2019-03-26T03:06:16.056Z,99.90
2019-03-26T03:08:52.094Z,99.90
2019-03-26T03:11:33.786Z,99.90
2019-03-26T03:14:17.121Z,99.90
2019-03-26T03:16:53.519Z,99.90
2019-03-26T03:19:36.843Z,99.90
2019-03-26T03:22:25.705Z,99.90
2019-03-26T03:25:07.540Z,99.90
2019-03-26T03:27:50.891Z,99.90
2019-03-26T03:30:40.604Z,99.90
2019-03-26T03:33:30.361Z,99.90
2019-03-26T03:36:19.838Z,99.90
2019-03-26T03:39:02.172Z,99.90
2019-03-26T03:41:44.538Z,99.90
2019-03-26T03:44:26.507Z,99.90
2019-03-26T03:47:04.343Z,99.90
2019-03-26T03:49:48.036Z,99.90
2019-03-26T03:52:33.939Z,99.90
2019-03-26T03:55:23.485Z,99.90
2019-03-26T03:58:14.451Z,99.90
2019-03-26T04:00:57.179Z,99.90
2019-03-26T04:03:33.514Z,99.90
2019-03-26T04:06:16.029Z,99.90
2019-03-26T04:08:52.386Z,99.90
2019-03-26T04:11:49.068Z,99.90
2019-03-26T04:14:25.573Z,99.90
2019-03-26T04:17:07.323Z,99.90
2019-03-26T04:19:50.322Z,99.90
2019-03-26T04:22:39.600Z,99.90
2019-03-26T04:25:22.483Z,99.90
2019-03-26T04:27:58.837Z,99.90
2019-03-26T04:30:41.842Z,99.90
2019-03-26T04:33:24.353Z,99.90
2019-03-26T04:36:06.471Z,99.90
2019-03-26T04:38:42.570Z,99.90
2019-03-26T04:41:31.932Z,99.90
2019-03-26T04:44:14.737Z,99.90
2019-03-26T04:46:50.625Z,99.90
2019-03-26T04:49:34.019Z,99.90
2019-03-26T04:52:09.554Z,99.90
2019-03-26T04:54:52.025Z,99.90
2019-03-26T04:57:27.660Z,99.90
2019-03-26T05:00:10.179Z,99.90
2019-03-26T05:02:46.526Z,99.90
2019-03-26T05:05:28.564Z,99.90
2019-03-26T05:08:04.559Z,99.90
2019-03-26T05:10:49.205Z,99.90
2019-03-26T05:13:32.024Z,99.90
2019-03-26T05:16:20.870Z,99.90
2019-03-26T05:19:02.867Z,99.90
2019-03-26T05:21:38.617Z,99.90
2019-03-26T05:24:21.359Z,99.90
2019-03-26T05:26:56.818Z,99.90
2019-03-26T05:29:39.729Z,99.90
2019-03-26T05:32:15.810Z,99.90
2019-03-26T05:34:57.990Z,99.90
2019-03-26T05:37:40.069Z,99.90
2019-03-26T05:40:22.984Z,99.90
2019-03-26T05:42:59.442Z,99.90
2019-03-26T05:45:42.532Z,99.90
2019-03-26T05:48:18.387Z,99.90
2019-03-26T05:51:01.500Z,99.90
2019-03-26T05:53:50.854Z,99.90
2019-03-26T05:56:40.108Z,99.90
2019-03-26T05:59:29.467Z,99.90
2019-03-26T06:02:15.168Z,99.90
2019-03-26T06:04:50.104Z,99.90
2019-03-26T06:07:32.901Z,99.90
2019-03-26T06:10:15.694Z,99.90
2019-03-26T06:12:58.028Z,99.90
2019-03-26T06:15:41.224Z,99.90
2019-03-26T06:18:23.989Z,99.90
2019-03-26T06:21:06.305Z,99.90
2019-03-26T06:23:55.337Z,99.90
2019-03-26T06:26:31.111Z,99.90
2019-03-26T06:29:13.328Z,99.90
2019-03-26T06:32:03.410Z,99.90
2019-03-26T06:34:45.980Z,99.90
2019-03-26T06:37:28.962Z,99.90
2019-03-26T06:40:15.751Z,99.90
2019-03-26T06:42:51.398Z,99.90
2019-03-26T06:45:34.032Z,99.90
2019-03-26T06:48:09.847Z,99.90
2019-03-26T06:50:52.354Z,99.90
2019-03-26T06:53:35.295Z,99.90
2019-03-26T06:56:24.513Z,99.90
2019-03-26T06:59:13.315Z,99.90
2019-03-26T07:01:56.934Z,99.90
2019-03-26T07:04:32.473Z,99.90
2019-03-26T07:07:15.817Z,99.90
2019-03-26T07:09:52.164Z,99.90
2019-03-26T07:12:36.230Z,99.70
2019-03-26T07:15:16.226Z,99.90
2019-03-26T07:17:58.083Z,99.60
2019-03-26T07:20:33.597Z,99.70
2019-03-26T07:23:16.355Z,99.80
2019-03-26T07:25:52.120Z,99.70
2019-03-26T07:28:34.094Z,99.50
2019-03-26T07:31:10.449Z,99.50
2019-03-26T07:33:53.039Z,99.40
2019-03-26T07:36:29.323Z,99.40
2019-03-26T07:39:12.577Z,99.10
2019-03-26T07:41:49.131Z,99.10
2019-03-26T07:44:31.511Z,99.00
2019-03-26T07:47:07.272Z,99.10
2019-03-26T07:49:49.819Z,98.90
2019-03-26T07:52:32.467Z,99.10
2019-03-26T07:55:16.667Z,99.10
2019-03-26T07:57:52.312Z,99.20
2019-03-26T08:00:43.179Z,99.40
2019-03-26T08:03:21.187Z,99.70
2019-03-26T08:06:02.970Z,99.90
2019-03-26T08:08:52.334Z,99.90
2019-03-26T08:11:41.970Z,99.90
2019-03-26T08:14:25.076Z,99.90
2019-03-26T08:17:01.532Z,99.90
2019-03-26T08:19:50.951Z,99.90
2019-03-26T08:22:40.174Z,99.90
2019-03-26T08:25:30.308Z,99.90
2019-03-26T08:28:12.400Z,99.60
2019-03-26T08:30:50.140Z,99.20
2019-03-26T08:33:32.789Z,98.70
2019-03-26T08:36:15.043Z,98.50
2019-03-26T08:38:56.857Z,97.90
2019-03-26T08:41:32.626Z,97.90
2019-03-26T08:44:15.803Z,97.90
2019-03-26T08:46:51.393Z,97.70
2019-03-26T08:49:34.367Z,97.50
2019-03-26T08:52:10.313Z,97.40
2019-03-26T08:54:53.004Z,97.20
2019-03-26T08:57:29.366Z,97.90
2019-03-26T09:00:16.927Z,98.00
2019-03-26T09:02:53.324Z,98.50
2019-03-26T09:05:35.154Z,98.30
2019-03-26T09:08:24.470Z,98.00
2019-03-26T09:10:55.955Z,98.10
2019-03-26T09:13:38.904Z,98.70
2019-03-26T09:16:22.147Z,98.40
2019-03-26T09:19:05.309Z,98.70
2019-03-26T09:21:41.305Z,98.30
2019-03-26T09:24:30.784Z,97.60
2019-03-26T09:27:13.132Z,97.70
2019-03-26T09:29:56.127Z,97.20
2019-03-26T09:32:38.804Z,96.80
2019-03-26T09:35:17.343Z,96.50
2019-03-26T09:37:59.717Z,96.50
2019-03-26T09:40:35.756Z,95.80
2019-03-26T09:43:17.760Z,95.50
2019-03-26T09:45:54.205Z,96.00
2019-03-26T09:48:37.315Z,95.30
2019-03-26T09:51:13.696Z,94.60
2019-03-26T09:53:55.962Z,94.30
2019-03-26T09:56:32.183Z,94.60
2019-03-26T09:59:14.866Z,94.70
2019-03-26T10:01:50.857Z,94.50
2019-03-26T10:04:33.170Z,94.40
2019-03-26T10:07:20.856Z,94.00
2019-03-26T10:09:54.408Z,93.10
2019-03-26T10:12:37.520Z,93.60
2019-03-26T10:15:26.390Z,93.80
2019-03-26T10:18:16.068Z,93.80
2019-03-26T10:20:58.900Z,93.90
2019-03-26T10:23:34.636Z,93.00
2019-03-26T10:26:10.787Z,92.90
2019-03-26T10:28:53.844Z,93.80
2019-03-26T10:31:43.245Z,92.70
2019-03-26T10:34:25.826Z,92.30
2019-03-26T10:37:01.787Z,93.00
2019-03-26T10:39:44.668Z,91.10
2019-03-26T10:42:21.093Z,90.90
2019-03-26T10:45:03.706Z,90.90
2019-03-26T10:47:39.355Z,90.90
2019-03-26T10:50:22.173Z,91.00
2019-03-26T10:52:57.931Z,91.60
2019-03-26T10:55:41.463Z,91.80
2019-03-26T10:58:24.505Z,92.30
2019-03-26T11:01:00.652Z,92.80
2019-03-26T11:03:50.630Z,92.50
2019-03-26T11:06:33.421Z,93.60
2019-03-26T11:09:23.056Z,94.20
2019-03-26T11:11:55.381Z,94.10
2019-03-26T11:14:31.919Z,93.90
2019-03-26T11:17:14.956Z,92.80
2019-03-26T11:19:57.310Z,93.00
2019-03-26T11:22:46.152Z,91.50
2019-03-26T11:25:28.748Z,92.30
2019-03-26T11:28:04.701Z,91.10
2019-03-26T11:30:47.011Z,91.20
2019-03-26T11:33:29.322Z,91.70
2019-03-26T11:36:12.143Z,91.20
2019-03-26T11:38:55.486Z,92.20
2019-03-26T11:41:44.376Z,90.50
2019-03-26T11:44:26.805Z,88.50
2019-03-26T11:47:03.153Z,88.30
2019-03-26T11:49:45.932Z,85.90
2019-03-26T11:52:21.871Z,88.60
2019-03-26T11:55:04.062Z,85.30
2019-03-26T11:57:46.864Z,86.20
2019-03-26T12:00:34.487Z,86.30
2019-03-26T12:03:17.397Z,89.20
2019-03-26T12:06:00.373Z,91.40
2019-03-26T12:08:36.352Z,94.60
2019-03-26T12:11:38.433Z,95.70
2019-03-26T12:14:20.804Z,96.20
2019-03-26T12:16:56.605Z,96.50
2019-03-26T12:19:40.060Z,96.00
2019-03-26T12:22:15.995Z,95.80
2019-03-26T12:24:58.031Z,95.50
2019-03-26T12:27:40.390Z,93.80
2019-03-26T12:30:27.721Z,93.30
2019-03-26T12:33:04.525Z,90.90
2019-03-26T12:35:47.388Z,90.20
2019-03-26T12:38:25.339Z,90.10
2019-03-26T12:41:08.046Z,90.00
2019-03-26T12:43:43.965Z,90.90
2019-03-26T12:46:25.850Z,91.20
2019-03-26T12:49:15.416Z,91.00
2019-03-26T12:52:04.788Z,90.60
2019-03-26T12:54:47.232Z,89.40
2019-03-26T12:57:29.857Z,88.40
2019-03-26T13:00:23.100Z,88.40
2019-03-26T13:03:05.967Z,84.90
2019-03-26T13:05:48.743Z,84.70
2019-03-26T13:08:30.677Z,84.50
2019-03-26T13:11:12.981Z,81.80
2019-03-26T13:13:48.926Z,82.00
2019-03-26T13:16:31.516Z,79.50
2019-03-26T13:19:21.177Z,79.10
2019-03-26T13:22:03.940Z,78.80
2019-03-26T13:24:40.102Z,77.70
2019-03-26T13:27:22.671Z,76.60
2019-03-26T13:30:05.291Z,76.70
2019-03-26T13:32:40.951Z,76.60
2019-03-26T13:35:24.121Z,75.70
2019-03-26T13:38:06.621Z,74.70
2019-03-26T13:40:49.589Z,76.20
2019-03-26T13:43:25.554Z,77.30
2019-03-26T13:46:08.163Z,76.30
2019-03-26T13:48:58.128Z,73.50
2019-03-26T13:51:40.965Z,74.20
2019-03-26T13:54:23.785Z,74.70
2019-03-26T13:57:12.948Z,74.30
2019-03-26T13:59:55.308Z,74.20
2019-03-26T14:02:31.350Z,75.40
2019-03-26T14:04:59.189Z,76.10
2019-03-26T14:07:41.607Z,73.30
2019-03-26T14:10:24.861Z,73.60
2019-03-26T14:13:07.860Z,74.00
2019-03-26T14:15:43.975Z,77.10
2019-03-26T14:20:53.729Z,82.20
2019-03-26T14:23:36.088Z,81.90
2019-03-26T14:26:18.989Z,80.30
2019-03-26T14:29:02.160Z,79.30
2019-03-26T14:31:38.225Z,78.00
2019-03-26T14:34:20.946Z,78.80
2019-03-26T14:36:58.276Z,79.30
2019-03-26T14:39:43.061Z,78.40
2019-03-26T14:42:20.586Z,77.60
2019-03-26T14:45:03.058Z,76.30
2019-03-26T14:47:40.283Z,77.00
2019-03-26T14:50:23.607Z,77.90
2019-03-26T14:52:51.587Z,79.00
2019-03-26T14:55:33.684Z,79.80
2019-03-26T14:58:16.539Z,80.00
2019-03-26T15:03:37.358Z,78.50
2019-03-26T15:06:13.136Z,79.50
2019-03-26T15:08:55.689Z,78.50
2019-03-26T15:11:31.438Z,78.70
2019-03-26T15:14:13.749Z,78.40
2019-03-26T15:16:57.347Z,79.50
2019-03-26T15:19:32.429Z,77.90
2019-03-26T15:22:14.937Z,78.80
2019-03-26T15:24:59.486Z,78.40
2019-03-26T15:27:35.158Z,78.60
2019-03-26T15:30:18.257Z,78.40
2019-03-26T15:32:54.721Z,78.70
2019-03-26T15:38:07.963Z,78.20
2019-03-26T15:40:36.785Z,78.00
2019-03-26T15:45:47.472Z,78.40
2019-03-26T15:48:15.290Z,79.00
2019-03-26T15:50:57.623Z,79.10
2019-03-26T15:53:34.257Z,79.00
2019-03-26T15:56:08.736Z,79.60
2019-03-26T15:58:44.229Z,80.20
2019-03-26T16:01:27.411Z,79.90
2019-03-26T16:04:09.343Z,80.10
2019-03-26T16:09:21.760Z,79.10
2019-03-26T16:12:05.029Z,79.70
2019-03-26T16:14:41.111Z,80.00
2019-03-26T16:17:23.883Z,78.60
2019-03-26T16:22:34.226Z,77.80
2019-03-26T16:25:10.764Z,77.60
2019-03-26T16:27:53.752Z,76.40
2019-03-26T16:30:36.815Z,77.10
2019-03-26T16:33:05.557Z,77.90
2019-03-26T16:35:48.094Z,77.60
2019-03-26T16:38:30.137Z,78.20
2019-03-26T16:41:06.597Z,78.40
2019-03-26T16:43:49.853Z,78.90
2019-03-26T16:49:00.031Z,79.80
2019-03-26T16:51:42.579Z,80.30
2019-03-26T16:54:19.124Z,80.70
2019-03-26T16:56:55.260Z,81.70
2019-03-26T16:59:37.938Z,82.20
2019-03-26T17:02:06.754Z,82.30
2019-03-26T17:04:49.682Z,82.40
2019-03-26T17:07:36.572Z,82.80
2019-03-26T17:10:21.854Z,83.00
2019-03-26T17:13:11.765Z,83.20
2019-03-26T17:16:01.750Z,83.80
2019-03-26T17:18:51.099Z,83.70
2019-03-26T17:21:33.951Z,84.20
2019-03-26T17:24:17.277Z,84.30
2019-03-26T17:26:59.881Z,84.50
2019-03-26T17:29:36.527Z,84.30
2019-03-26T17:32:19.981Z,84.40
2019-03-26T17:34:56.565Z,83.80
2019-03-26T17:37:39.114Z,80.90
2019-03-26T17:40:15.208Z,80.20
2019-03-26T17:42:57.753Z,79.20
2019-03-26T17:45:34.242Z,79.60
2019-03-26T17:48:16.859Z,80.00
2019-03-26T17:50:53.157Z,80.00
2019-03-26T17:53:36.020Z,79.70
2019-03-26T17:56:11.772Z,80.00
2019-03-26T17:58:54.460Z,79.90
2019-03-26T18:01:37.304Z,80.50
2019-03-26T18:04:19.831Z,80.70
2019-03-26T18:06:55.667Z,80.50
2019-03-26T18:09:38.274Z,81.00
2019-03-26T18:12:14.717Z,81.40
2019-03-26T18:14:57.764Z,82.10
2019-03-26T18:17:39.840Z,82.20
2019-03-26T18:20:15.573Z,82.50
2019-03-26T18:22:58.226Z,83.10
2019-03-26T18:25:48.078Z,83.50
2019-03-26T18:28:30.215Z,83.50
2019-03-26T18:31:06.765Z,83.60
2019-03-26T18:33:48.897Z,84.00
2019-03-26T18:36:24.515Z,84.20
2019-03-26T18:39:07.411Z,84.50
2019-03-26T18:41:50.524Z,84.60
2019-03-26T18:44:39.731Z,84.90
2019-03-26T18:47:22.457Z,85.30
2019-03-26T18:49:58.634Z,85.30
2019-03-26T18:52:42.860Z,85.90
2019-03-26T18:55:19.898Z,86.50
2019-03-26T18:58:03.287Z,87.10
2019-03-26T19:00:42.234Z,87.70
2019-03-26T19:03:25.157Z,88.20
2019-03-26T19:06:01.530Z,88.30
2019-03-26T19:08:43.770Z,88.60
2019-03-26T19:11:20.093Z,89.10
2019-03-26T19:14:03.026Z,89.40
2019-03-26T19:16:39.688Z,90.00
2019-03-26T19:19:22.842Z,90.10
2019-03-26T19:21:59.083Z,90.30
2019-03-26T19:24:44.322Z,90.40
2019-03-26T19:27:20.879Z,90.60
2019-03-26T19:30:02.817Z,90.70
2019-03-26T19:35:13.045Z,91.10
2019-03-26T19:37:49.621Z,91.10
2019-03-26T19:40:32.129Z,91.40
2019-03-26T19:43:21.947Z,91.70
2019-03-26T19:45:58.279Z,92.30
2019-03-26T19:48:40.803Z,92.10
2019-03-26T19:51:24.163Z,92.20
2019-03-26T19:54:00.689Z,92.20
2019-03-26T19:56:37.265Z,92.30
2019-03-26T19:59:20.034Z,92.50
2019-03-26T20:02:03.063Z,92.60
2019-03-26T20:04:31.803Z,92.90
2019-03-26T20:07:14.799Z,92.90
2019-03-26T20:10:06.178Z,93.00
2019-03-26T20:12:50.321Z,93.10
2019-03-26T20:15:39.941Z,93.10
2019-03-26T20:18:29.940Z,93.30
2019-03-26T20:21:19.773Z,93.50
2019-03-26T20:24:09.611Z,93.60
2019-03-26T20:26:58.805Z,93.80
2019-03-26T20:29:42.955Z,94.60
2019-03-26T20:32:18.854Z,94.40
2019-03-26T20:35:02.095Z,94.50
2019-03-26T20:37:45.032Z,94.50
2019-03-26T20:40:36.119Z,94.60
2019-03-26T20:43:18.444Z,94.60
2019-03-26T20:45:55.018Z,94.70
2019-03-26T20:48:37.928Z,94.70
2019-03-26T20:51:13.985Z,94.70
2019-03-26T20:53:56.700Z,94.80
2019-03-26T20:56:33.070Z,94.90
2019-03-26T20:59:16.171Z,95.20
2019-03-26T21:01:52.264Z,95.20
2019-03-26T21:04:34.534Z,95.40
2019-03-26T21:07:11.007Z,95.50
2019-03-26T21:09:53.698Z,95.70
2019-03-26T21:12:29.315Z,95.70
2019-03-26T21:15:15.286Z,95.70
2019-03-26T21:17:51.250Z,95.90
2019-03-26T21:20:33.294Z,96.00
2019-03-26T21:23:15.847Z,96.10
2019-03-26T21:26:05.027Z,96.10
2019-03-26T21:28:46.821Z,96.10
2019-03-26T21:31:22.522Z,96.00
2019-03-26T21:34:06.135Z,96.10
2019-03-26T21:36:48.634Z,96.30
2019-03-26T21:39:38.421Z,96.40
2019-03-26T21:42:20.586Z,96.40
2019-03-26T21:44:56.093Z,96.70
2019-03-26T21:47:39.147Z,96.60
2019-03-26T21:50:16.151Z,96.60
2019-03-26T21:52:59.581Z,96.50
2019-03-26T21:55:35.790Z,96.60
2019-03-26T21:58:19.015Z,96.60
2019-03-26T22:00:55.509Z,96.60
2019-03-26T22:03:38.593Z,96.80
2019-03-26T22:06:21.531Z,96.90
2019-03-26T22:09:04.333Z,97.00
2019-03-26T22:11:50.105Z,97.00
2019-03-26T22:14:38.341Z,97.00
2019-03-26T22:17:21.037Z,97.10
2019-03-26T22:20:03.694Z,97.30
2019-03-26T22:22:46.433Z,97.40
2019-03-26T22:25:35.429Z,97.40
2019-03-26T22:28:18.358Z,97.40
2019-03-26T22:30:54.162Z,97.40
2019-03-26T22:33:36.571Z,97.50
2019-03-26T22:36:19.746Z,97.50
2019-03-26T22:39:02.666Z,97.50
2019-03-26T22:41:45.847Z,97.30
2019-03-26T22:44:31.559Z,97.40
2019-03-26T22:47:12.243Z,97.60
2019-03-26T22:50:14.741Z,97.80
2019-03-26T22:52:57.642Z,97.70
2019-03-26T22:55:33.909Z,97.70
2019-03-26T22:58:16.068Z,97.70
2019-03-26T23:00:52.040Z,97.70
2019-03-26T23:03:35.607Z,97.70
2019-03-26T23:06:11.654Z,97.70
2019-03-26T23:08:54.788Z,97.80
2019-03-26T23:11:31.055Z,97.80
2019-03-26T23:14:13.164Z,97.90
2019-03-26T23:16:49.514Z,97.80
2019-03-26T23:19:32.275Z,97.80
2019-03-26T23:22:08.497Z,98.10
2019-03-26T23:25:04.734Z,97.90
2019-03-26T23:27:41.036Z,98.00
2019-03-26T23:30:24.624Z,98.10
2019-03-26T23:33:01.105Z,98.00
2019-03-26T23:35:43.901Z,97.90
2019-03-26T23:38:39.592Z,97.80
2019-03-26T23:41:22.419Z,98.00
2019-03-26T23:43:58.372Z,98.00
2019-03-26T23:46:40.319Z,98.20
2019-03-26T23:49:16.376Z,98.00
2019-03-26T23:51:58.851Z,98.10
2019-03-26T23:54:35.276Z,98.10
2019-03-26T23:57:17.580Z,98.20
2019-03-26T23:59:53.448Z,98.30
